sensor_id;sensor_type;location;lat;lon;timestamp;P1;durP1;ratioP1;P2;durP2;ratioP2
69030;SDS011;56083;48.774;8.942;2023-10-09T00:01:49;39.40;;;8.18;;
69030;SDS011;56083;48.774;8.942;2023-10-09T00:04:16;31.15;;;7.70;;
69030;SDS011;56083;48.774;8.942;2023-10-09T00:06:42;27.60;;;7.70;;
69030;SDS011;56083;48.774;8.942;2023-10-09T00:09:08;29.02;;;7.70;;
69030;SDS011;56083;48.774;8.942;2023-10-09T00:11:50;26.30;;;7.50;;
69030;SDS011;56083;48.774;8.942;2023-10-09T00:14:23;34.58;;;8.30;;
69030;SDS011;56083;48.774;8.942;2023-10-09T00:16:49;28.67;;;7.13;;
69030;SDS011;56083;48.774;8.942;2023-10-09T00:19:21;28.27;;;8.23;;
69030;SDS011;56083;48.774;8.942;2023-10-09T00:21:58;33.05;;;8.27;;
69030;SDS011;56083;48.774;8.942;2023-10-09T00:24:31;31.73;;;8.02;;
69030;SDS011;56083;48.774;8.942;2023-10-09T00:26:57;26.85;;;7.72;;
69030;SDS011;56083;48.774;8.942;2023-10-09T00:29:44;29.42;;;7.28;;
69030;SDS011;56083;48.774;8.942;2023-10-09T00:32:13;30.83;;;6.97;;
69030;SDS011;56083;48.774;8.942;2023-10-09T00:34:52;26.75;;;7.88;;
69030;SDS011;56083;48.774;8.942;2023-10-09T00:37:23;32.38;;;7.97;;
69030;SDS011;56083;48.774;8.942;2023-10-09T00:39:50;29.23;;;7.20;;
69030;SDS011;56083;48.774;8.942;2023-10-09T00:42:22;28.02;;;7.93;;
69030;SDS011;56083;48.774;8.942;2023-10-09T00:45:09;34.33;;;7.55;;
69030;SDS011;56083;48.774;8.942;2023-10-09T00:47:35;31.73;;;7.72;;
69030;SDS011;56083;48.774;8.942;2023-10-09T00:50:06;29.55;;;7.82;;
69030;SDS011;56083;48.774;8.942;2023-10-09T00:52:47;28.73;;;6.88;;
69030;SDS011;56083;48.774;8.942;2023-10-09T00:55:23;28.83;;;7.32;;
69030;SDS011;56083;48.774;8.942;2023-10-09T00:58:02;33.13;;;6.93;;
69030;SDS011;56083;48.774;8.942;2023-10-09T01:00:34;38.53;;;7.60;;
69030;SDS011;56083;48.774;8.942;2023-10-09T01:03:10;23.52;;;7.40;;
69030;SDS011;56083;48.774;8.942;2023-10-09T01:05:50;22.55;;;6.55;;
69030;SDS011;56083;48.774;8.942;2023-10-09T01:08:24;34.90;;;7.20;;
69030;SDS011;56083;48.774;8.942;2023-10-09T01:11:06;27.88;;;7.15;;
69030;SDS011;56083;48.774;8.942;2023-10-09T01:13:41;33.60;;;8.07;;
69030;SDS011;56083;48.774;8.942;2023-10-09T01:16:13;33.47;;;7.38;;
69030;SDS011;56083;48.774;8.942;2023-10-09T01:18:45;36.28;;;7.97;;
69030;SDS011;56083;48.774;8.942;2023-10-09T01:21:24;29.30;;;7.45;;
69030;SDS011;56083;48.774;8.942;2023-10-09T01:23:52;27.45;;;7.28;;
69030;SDS011;56083;48.774;8.942;2023-10-09T01:26:30;33.63;;;7.50;;
69030;SDS011;56083;48.774;8.942;2023-10-09T01:29:00;31.45;;;7.70;;
69030;SDS011;56083;48.774;8.942;2023-10-09T01:31:26;28.15;;;7.75;;
69030;SDS011;56083;48.774;8.942;2023-10-09T01:33:53;33.35;;;7.97;;
69030;SDS011;56083;48.774;8.942;2023-10-09T01:36:24;28.67;;;7.57;;
69030;SDS011;56083;48.774;8.942;2023-10-09T01:38:59;33.67;;;7.38;;
69030;SDS011;56083;48.774;8.942;2023-10-09T01:41:27;31.98;;;7.72;;
69030;SDS011;56083;48.774;8.942;2023-10-09T01:43:52;31.50;;;7.45;;
69030;SDS011;56083;48.774;8.942;2023-10-09T01:46:25;30.95;;;7.40;;
69030;SDS011;56083;48.774;8.942;2023-10-09T01:48:51;32.80;;;7.22;;
69030;SDS011;56083;48.774;8.942;2023-10-09T01:51:18;38.45;;;7.90;;
69030;SDS011;56083;48.774;8.942;2023-10-09T01:53:45;34.10;;;7.00;;
69030;SDS011;56083;48.774;8.942;2023-10-09T01:56:19;31.02;;;7.45;;
69030;SDS011;56083;48.774;8.942;2023-10-09T01:58:45;25.45;;;7.20;;
69030;SDS011;56083;48.774;8.942;2023-10-09T02:01:12;24.30;;;7.55;;
69030;SDS011;56083;48.774;8.942;2023-10-09T02:03:39;29.80;;;7.72;;
69030;SDS011;56083;48.774;8.942;2023-10-09T02:06:09;26.00;;;7.18;;
69030;SDS011;56083;48.774;8.942;2023-10-09T02:08:54;31.17;;;7.90;;
69030;SDS011;56083;48.774;8.942;2023-10-09T02:11:21;26.90;;;7.55;;
69030;SDS011;56083;48.774;8.942;2023-10-09T02:14:01;32.28;;;7.57;;
69030;SDS011;56083;48.774;8.942;2023-10-09T02:16:44;32.95;;;7.55;;
69030;SDS011;56083;48.774;8.942;2023-10-09T02:19:31;38.97;;;8.07;;
69030;SDS011;56083;48.774;8.942;2023-10-09T02:21:59;33.88;;;8.02;;
69030;SDS011;56083;48.774;8.942;2023-10-09T02:24:31;35.25;;;8.05;;
69030;SDS011;56083;48.774;8.942;2023-10-09T02:27:16;33.58;;;7.75;;
69030;SDS011;56083;48.774;8.942;2023-10-09T02:30:04;31.55;;;7.20;;
69030;SDS011;56083;48.774;8.942;2023-10-09T02:32:54;31.55;;;7.45;;
69030;SDS011;56083;48.774;8.942;2023-10-09T02:35:31;37.47;;;7.10;;
69030;SDS011;56083;48.774;8.942;2023-10-09T02:38:04;25.58;;;7.13;;
69030;SDS011;56083;48.774;8.942;2023-10-09T02:40:35;30.65;;;7.13;;
69030;SDS011;56083;48.774;8.942;2023-10-09T02:43:27;41.28;;;8.30;;
69030;SDS011;56083;48.774;8.942;2023-10-09T02:45:53;33.60;;;8.30;;
69030;SDS011;56083;48.774;8.942;2023-10-09T02:48:19;31.65;;;7.15;;
69030;SDS011;56083;48.774;8.942;2023-10-09T02:50:46;42.22;;;8.05;;
69030;SDS011;56083;48.774;8.942;2023-10-09T02:53:12;37.00;;;7.30;;
69030;SDS011;56083;48.774;8.942;2023-10-09T02:55:45;26.48;;;7.43;;
69030;SDS011;56083;48.774;8.942;2023-10-09T02:58:29;31.67;;;7.93;;
69030;SDS011;56083;48.774;8.942;2023-10-09T03:00:57;37.78;;;8.18;;
69030;SDS011;56083;48.774;8.942;2023-10-09T03:03:24;33.78;;;7.78;;
69030;SDS011;56083;48.774;8.942;2023-10-09T03:05:50;36.38;;;8.13;;
69030;SDS011;56083;48.774;8.942;2023-10-09T03:08:16;35.88;;;7.43;;
69030;SDS011;56083;48.774;8.942;2023-10-09T03:10:44;35.97;;;8.27;;
69030;SDS011;56083;48.774;8.942;2023-10-09T03:13:10;25.23;;;7.07;;
69030;SDS011;56083;48.774;8.942;2023-10-09T03:15:35;29.50;;;7.35;;
69030;SDS011;56083;48.774;8.942;2023-10-09T03:18:03;31.13;;;8.05;;
69030;SDS011;56083;48.774;8.942;2023-10-09T03:20:29;31.90;;;7.70;;
69030;SDS011;56083;48.774;8.942;2023-10-09T03:22:56;36.47;;;7.28;;
69030;SDS011;56083;48.774;8.942;2023-10-09T03:25:22;41.78;;;8.05;;
69030;SDS011;56083;48.774;8.942;2023-10-09T03:27:50;50.13;;;8.57;;
69030;SDS011;56083;48.774;8.942;2023-10-09T03:30:18;41.63;;;7.57;;
69030;SDS011;56083;48.774;8.942;2023-10-09T03:32:50;26.35;;;7.15;;
69030;SDS011;56083;48.774;8.942;2023-10-09T03:35:20;43.63;;;8.27;;
69030;SDS011;56083;48.774;8.942;2023-10-09T03:37:53;25.25;;;6.40;;
69030;SDS011;56083;48.774;8.942;2023-10-09T03:40:42;38.38;;;7.60;;
69030;SDS011;56083;48.774;8.942;2023-10-09T03:43:11;37.40;;;7.65;;
69030;SDS011;56083;48.774;8.942;2023-10-09T03:45:37;39.80;;;7.78;;
69030;SDS011;56083;48.774;8.942;2023-10-09T03:48:10;38.08;;;7.25;;
69030;SDS011;56083;48.774;8.942;2023-10-09T03:50:45;35.10;;;7.35;;
69030;SDS011;56083;48.774;8.942;2023-10-09T03:53:12;35.25;;;7.15;;
69030;SDS011;56083;48.774;8.942;2023-10-09T03:55:38;36.33;;;6.93;;
69030;SDS011;56083;48.774;8.942;2023-10-09T03:58:08;38.85;;;7.13;;
69030;SDS011;56083;48.774;8.942;2023-10-09T04:00:37;30.92;;;6.35;;
69030;SDS011;56083;48.774;8.942;2023-10-09T04:03:14;43.83;;;7.43;;
69030;SDS011;56083;48.774;8.942;2023-10-09T04:05:41;40.92;;;7.10;;
69030;SDS011;56083;48.774;8.942;2023-10-09T04:08:11;29.52;;;6.53;;
69030;SDS011;56083;48.774;8.942;2023-10-09T04:10:44;34.00;;;6.72;;
69030;SDS011;56083;48.774;8.942;2023-10-09T04:13:19;35.70;;;7.10;;
69030;SDS011;56083;48.774;8.942;2023-10-09T04:15:51;37.22;;;7.30;;
69030;SDS011;56083;48.774;8.942;2023-10-09T04:18:19;39.88;;;7.10;;
69030;SDS011;56083;48.774;8.942;2023-10-09T04:20:46;46.80;;;7.35;;
69030;SDS011;56083;48.774;8.942;2023-10-09T04:23:47;40.40;;;7.15;;
69030;SDS011;56083;48.774;8.942;2023-10-09T04:26:45;29.15;;;6.47;;
69030;SDS011;56083;48.774;8.942;2023-10-09T04:29:15;35.85;;;7.32;;
69030;SDS011;56083;48.774;8.942;2023-10-09T04:32:02;32.80;;;7.32;;
69030;SDS011;56083;48.774;8.942;2023-10-09T04:34:32;36.60;;;7.13;;
69030;SDS011;56083;48.774;8.942;2023-10-09T04:37:13;38.67;;;7.15;;
69030;SDS011;56083;48.774;8.942;2023-10-09T04:39:40;46.13;;;7.13;;
69030;SDS011;56083;48.774;8.942;2023-10-09T04:42:14;38.25;;;7.47;;
69030;SDS011;56083;48.774;8.942;2023-10-09T04:44:49;39.60;;;6.70;;
69030;SDS011;56083;48.774;8.942;2023-10-09T04:47:27;43.63;;;7.30;;
69030;SDS011;56083;48.774;8.942;2023-10-09T04:50:14;36.08;;;6.95;;
69030;SDS011;56083;48.774;8.942;2023-10-09T04:52:43;31.13;;;7.05;;
69030;SDS011;56083;48.774;8.942;2023-10-09T04:55:09;32.10;;;6.50;;
69030;SDS011;56083;48.774;8.942;2023-10-09T04:57:35;34.88;;;6.80;;
69030;SDS011;56083;48.774;8.942;2023-10-09T05:05:49;40.90;;;7.28;;
69030;SDS011;56083;48.774;8.942;2023-10-09T05:08:23;48.22;;;8.27;;
69030;SDS011;56083;48.774;8.942;2023-10-09T05:13:25;44.10;;;6.93;;
69030;SDS011;56083;48.774;8.942;2023-10-09T05:16:03;44.67;;;7.38;;
69030;SDS011;56083;48.774;8.942;2023-10-09T05:18:41;44.90;;;7.18;;
69030;SDS011;56083;48.774;8.942;2023-10-09T05:21:09;44.42;;;9.95;;
69030;SDS011;56083;48.774;8.942;2023-10-09T05:23:41;51.45;;;9.13;;
69030;SDS011;56083;48.774;8.942;2023-10-09T05:26:16;36.42;;;7.05;;
69030;SDS011;56083;48.774;8.942;2023-10-09T05:29:02;37.80;;;6.80;;
69030;SDS011;56083;48.774;8.942;2023-10-09T05:31:44;46.05;;;7.22;;
69030;SDS011;56083;48.774;8.942;2023-10-09T05:34:22;35.65;;;6.85;;
69030;SDS011;56083;48.774;8.942;2023-10-09T05:36:51;38.70;;;6.88;;
69030;SDS011;56083;48.774;8.942;2023-10-09T05:39:17;39.72;;;7.65;;
69030;SDS011;56083;48.774;8.942;2023-10-09T05:41:46;44.47;;;7.95;;
69030;SDS011;56083;48.774;8.942;2023-10-09T05:44:12;65.63;;;8.50;;
69030;SDS011;56083;48.774;8.942;2023-10-09T05:46:56;38.42;;;7.22;;
69030;SDS011;56083;48.774;8.942;2023-10-09T05:49:40;30.65;;;6.63;;
69030;SDS011;56083;48.774;8.942;2023-10-09T05:52:12;33.00;;;6.85;;
69030;SDS011;56083;48.774;8.942;2023-10-09T05:54:57;31.40;;;7.28;;
69030;SDS011;56083;48.774;8.942;2023-10-09T05:57:40;37.75;;;7.35;;
69030;SDS011;56083;48.774;8.942;2023-10-09T06:00:25;29.80;;;6.43;;
69030;SDS011;56083;48.774;8.942;2023-10-09T06:03:10;40.20;;;7.93;;
69030;SDS011;56083;48.774;8.942;2023-10-09T06:05:49;35.58;;;6.85;;
69030;SDS011;56083;48.774;8.942;2023-10-09T06:08:18;36.75;;;7.15;;
69030;SDS011;56083;48.774;8.942;2023-10-09T06:11:03;39.53;;;7.03;;
69030;SDS011;56083;48.774;8.942;2023-10-09T06:13:52;40.28;;;7.18;;
69030;SDS011;56083;48.774;8.942;2023-10-09T06:16:27;45.08;;;7.78;;
69030;SDS011;56083;48.774;8.942;2023-10-09T06:19:12;41.92;;;7.70;;
69030;SDS011;56083;48.774;8.942;2023-10-09T06:21:45;36.80;;;6.78;;
69030;SDS011;56083;48.774;8.942;2023-10-09T06:24:20;40.63;;;7.57;;
69030;SDS011;56083;48.774;8.942;2023-10-09T06:26:48;38.88;;;6.75;;
69030;SDS011;56083;48.774;8.942;2023-10-09T06:29:23;47.30;;;7.32;;
69030;SDS011;56083;48.774;8.942;2023-10-09T06:32:08;42.17;;;6.85;;
69030;SDS011;56083;48.774;8.942;2023-10-09T06:37:10;36.08;;;6.45;;
69030;SDS011;56083;48.774;8.942;2023-10-09T06:39:49;36.90;;;7.32;;
69030;SDS011;56083;48.774;8.942;2023-10-09T06:42:21;30.63;;;6.60;;
69030;SDS011;56083;48.774;8.942;2023-10-09T06:45:00;40.30;;;6.88;;
69030;SDS011;56083;48.774;8.942;2023-10-09T06:47:38;43.58;;;7.13;;
69030;SDS011;56083;48.774;8.942;2023-10-09T06:50:18;41.75;;;6.75;;
69030;SDS011;56083;48.774;8.942;2023-10-09T06:52:47;38.47;;;6.82;;
69030;SDS011;56083;48.774;8.942;2023-10-09T06:55:25;25.95;;;6.68;;
69030;SDS011;56083;48.774;8.942;2023-10-09T06:58:01;29.30;;;6.47;;
69030;SDS011;56083;48.774;8.942;2023-10-09T07:00:38;38.33;;;6.53;;
69030;SDS011;56083;48.774;8.942;2023-10-09T07:03:39;24.50;;;5.68;;
69030;SDS011;56083;48.774;8.942;2023-10-09T07:06:17;41.38;;;6.80;;
69030;SDS011;56083;48.774;8.942;2023-10-09T07:08:53;41.03;;;6.77;;
69030;SDS011;56083;48.774;8.942;2023-10-09T07:11:46;37.05;;;6.72;;
69030;SDS011;56083;48.774;8.942;2023-10-09T07:14:17;30.60;;;7.43;;
69030;SDS011;56083;48.774;8.942;2023-10-09T07:17:04;38.20;;;6.47;;
69030;SDS011;56083;48.774;8.942;2023-10-09T07:19:54;30.23;;;6.60;;
69030;SDS011;56083;48.774;8.942;2023-10-09T07:22:20;29.73;;;6.35;;
69030;SDS011;56083;48.774;8.942;2023-10-09T07:24:46;39.22;;;7.10;;
69030;SDS011;56083;48.774;8.942;2023-10-09T07:27:21;43.85;;;7.85;;
69030;SDS011;56083;48.774;8.942;2023-10-09T07:32:54;35.45;;;7.63;;
69030;SDS011;56083;48.774;8.942;2023-10-09T07:35:23;35.70;;;7.40;;
69030;SDS011;56083;48.774;8.942;2023-10-09T07:38:07;34.53;;;7.60;;
69030;SDS011;56083;48.774;8.942;2023-10-09T07:40:36;32.67;;;6.78;;
69030;SDS011;56083;48.774;8.942;2023-10-09T07:43:38;37.15;;;7.20;;
69030;SDS011;56083;48.774;8.942;2023-10-09T07:46:11;37.92;;;7.38;;
69030;SDS011;56083;48.774;8.942;2023-10-09T07:49:17;41.15;;;8.10;;
69030;SDS011;56083;48.774;8.942;2023-10-09T07:51:49;40.00;;;7.43;;
69030;SDS011;56083;48.774;8.942;2023-10-09T07:54:17;42.90;;;7.63;;
69030;SDS011;56083;48.774;8.942;2023-10-09T07:56:57;39.47;;;7.35;;
69030;SDS011;56083;48.774;8.942;2023-10-09T07:59:34;40.38;;;6.57;;
69030;SDS011;56083;48.774;8.942;2023-10-09T08:02:09;49.78;;;7.40;;
69030;SDS011;56083;48.774;8.942;2023-10-09T08:04:41;27.38;;;5.70;;
69030;SDS011;56083;48.774;8.942;2023-10-09T08:07:18;34.58;;;6.47;;
69030;SDS011;56083;48.774;8.942;2023-10-09T08:10:03;37.90;;;6.35;;
69030;SDS011;56083;48.774;8.942;2023-10-09T08:12:44;38.85;;;6.55;;
69030;SDS011;56083;48.774;8.942;2023-10-09T08:15:23;47.58;;;6.30;;
69030;SDS011;56083;48.774;8.942;2023-10-09T08:18:08;33.10;;;6.15;;
69030;SDS011;56083;48.774;8.942;2023-10-09T08:20:43;49.70;;;7.32;;
69030;SDS011;56083;48.774;8.942;2023-10-09T08:23:24;32.63;;;6.50;;
69030;SDS011;56083;48.774;8.942;2023-10-09T08:26:13;33.20;;;6.38;;
69030;SDS011;56083;48.774;8.942;2023-10-09T08:28:42;29.77;;;6.03;;
69030;SDS011;56083;48.774;8.942;2023-10-09T08:31:12;32.67;;;6.18;;
69030;SDS011;56083;48.774;8.942;2023-10-09T08:33:47;36.83;;;5.90;;
69030;SDS011;56083;48.774;8.942;2023-10-09T08:36:26;33.67;;;6.80;;
69030;SDS011;56083;48.774;8.942;2023-10-09T08:39:04;32.97;;;6.22;;
69030;SDS011;56083;48.774;8.942;2023-10-09T08:41:50;35.25;;;6.00;;
69030;SDS011;56083;48.774;8.942;2023-10-09T08:44:22;43.63;;;6.37;;
69030;SDS011;56083;48.774;8.942;2023-10-09T08:46:51;38.90;;;6.57;;
69030;SDS011;56083;48.774;8.942;2023-10-09T08:49:19;44.00;;;6.70;;
69030;SDS011;56083;48.774;8.942;2023-10-09T08:51:46;32.50;;;6.30;;
69030;SDS011;56083;48.774;8.942;2023-10-09T08:54:13;41.00;;;5.88;;
69030;SDS011;56083;48.774;8.942;2023-10-09T08:56:40;38.47;;;6.70;;
69030;SDS011;56083;48.774;8.942;2023-10-09T08:59:14;42.83;;;6.15;;
69030;SDS011;56083;48.774;8.942;2023-10-09T09:01:44;37.33;;;6.20;;
69030;SDS011;56083;48.774;8.942;2023-10-09T09:04:32;36.58;;;6.22;;
69030;SDS011;56083;48.774;8.942;2023-10-09T09:07:03;42.40;;;6.88;;
69030;SDS011;56083;48.774;8.942;2023-10-09T09:09:30;35.78;;;6.00;;
69030;SDS011;56083;48.774;8.942;2023-10-09T09:11:58;36.50;;;5.97;;
69030;SDS011;56083;48.774;8.942;2023-10-09T09:14:35;40.35;;;6.28;;
69030;SDS011;56083;48.774;8.942;2023-10-09T09:17:07;35.08;;;5.75;;
69030;SDS011;56083;48.774;8.942;2023-10-09T09:19:36;43.60;;;6.60;;
69030;SDS011;56083;48.774;8.942;2023-10-09T09:22:03;44.90;;;7.07;;
69030;SDS011;56083;48.774;8.942;2023-10-09T09:24:39;33.72;;;5.68;;
69030;SDS011;56083;48.774;8.942;2023-10-09T09:27:11;41.30;;;5.82;;
69030;SDS011;56083;48.774;8.942;2023-10-09T09:29:46;37.15;;;6.10;;
69030;SDS011;56083;48.774;8.942;2023-10-09T09:32:26;39.40;;;6.07;;
69030;SDS011;56083;48.774;8.942;2023-10-09T09:35:00;58.65;;;6.38;;
69030;SDS011;56083;48.774;8.942;2023-10-09T09:37:29;43.45;;;5.82;;
69030;SDS011;56083;48.774;8.942;2023-10-09T09:40:19;47.97;;;7.15;;
69030;SDS011;56083;48.774;8.942;2023-10-09T09:42:59;52.00;;;7.35;;
69030;SDS011;56083;48.774;8.942;2023-10-09T09:45:36;49.90;;;6.45;;
69030;SDS011;56083;48.774;8.942;2023-10-09T09:48:02;51.63;;;6.47;;
69030;SDS011;56083;48.774;8.942;2023-10-09T09:50:35;38.90;;;6.00;;
69030;SDS011;56083;48.774;8.942;2023-10-09T09:53:13;43.45;;;6.32;;
69030;SDS011;56083;48.774;8.942;2023-10-09T09:55:44;37.22;;;6.70;;
69030;SDS011;56083;48.774;8.942;2023-10-09T09:58:21;43.08;;;6.70;;
69030;SDS011;56083;48.774;8.942;2023-10-09T10:03:31;30.00;;;6.57;;
69030;SDS011;56083;48.774;8.942;2023-10-09T10:06:04;53.40;;;7.30;;
69030;SDS011;56083;48.774;8.942;2023-10-09T10:08:37;48.33;;;6.97;;
69030;SDS011;56083;48.774;8.942;2023-10-09T10:11:06;47.13;;;7.10;;
69030;SDS011;56083;48.774;8.942;2023-10-09T10:21:36;37.92;;;6.57;;
69030;SDS011;56083;48.774;8.942;2023-10-09T10:30:01;32.28;;;6.45;;
69030;SDS011;56083;48.774;8.942;2023-10-09T10:35:23;38.22;;;5.90;;
69030;SDS011;56083;48.774;8.942;2023-10-09T10:38:21;26.17;;;5.60;;
69030;SDS011;56083;48.774;8.942;2023-10-09T10:40:47;32.33;;;5.60;;
69030;SDS011;56083;48.774;8.942;2023-10-09T10:43:22;28.50;;;5.20;;
69030;SDS011;56083;48.774;8.942;2023-10-09T10:46:05;18.60;;;4.47;;
69030;SDS011;56083;48.774;8.942;2023-10-09T10:48:59;25.63;;;4.93;;
69030;SDS011;56083;48.774;8.942;2023-10-09T10:51:36;23.52;;;4.57;;
69030;SDS011;56083;48.774;8.942;2023-10-09T10:54:05;23.42;;;4.93;;
69030;SDS011;56083;48.774;8.942;2023-10-09T10:56:50;18.05;;;4.78;;
69030;SDS011;56083;48.774;8.942;2023-10-09T10:59:17;23.42;;;4.80;;
69030;SDS011;56083;48.774;8.942;2023-10-09T11:01:52;25.02;;;4.70;;
69030;SDS011;56083;48.774;8.942;2023-10-09T11:04:22;16.90;;;4.85;;
69030;SDS011;56083;48.774;8.942;2023-10-09T11:06:53;22.58;;;4.68;;
69030;SDS011;56083;48.774;8.942;2023-10-09T11:12:22;18.02;;;4.43;;
69030;SDS011;56083;48.774;8.942;2023-10-09T11:14:49;19.10;;;4.47;;
69030;SDS011;56083;48.774;8.942;2023-10-09T11:17:37;17.73;;;4.38;;
69030;SDS011;56083;48.774;8.942;2023-10-09T11:20:06;20.73;;;5.10;;
69030;SDS011;56083;48.774;8.942;2023-10-09T11:22:49;23.48;;;4.65;;
69030;SDS011;56083;48.774;8.942;2023-10-09T11:25:36;21.25;;;4.80;;
69030;SDS011;56083;48.774;8.942;2023-10-09T11:28:16;13.75;;;4.72;;
69030;SDS011;56083;48.774;8.942;2023-10-09T11:30:54;31.10;;;4.72;;
69030;SDS011;56083;48.774;8.942;2023-10-09T11:33:46;20.40;;;5.03;;
69030;SDS011;56083;48.774;8.942;2023-10-09T11:36:13;23.42;;;5.43;;
69030;SDS011;56083;48.774;8.942;2023-10-09T11:38:40;14.88;;;5.47;;
69030;SDS011;56083;48.774;8.942;2023-10-09T11:41:14;16.92;;;5.68;;
69030;SDS011;56083;48.774;8.942;2023-10-09T11:43:48;25.65;;;7.00;;
69030;SDS011;56083;48.774;8.942;2023-10-09T11:46:21;18.73;;;5.95;;
69030;SDS011;56083;48.774;8.942;2023-10-09T11:49:06;24.25;;;5.75;;
69030;SDS011;56083;48.774;8.942;2023-10-09T11:51:44;18.95;;;6.03;;
69030;SDS011;56083;48.774;8.942;2023-10-09T11:54:42;14.90;;;5.95;;
69030;SDS011;56083;48.774;8.942;2023-10-09T11:57:10;20.05;;;5.68;;
69030;SDS011;56083;48.774;8.942;2023-10-09T11:59:35;23.30;;;6.05;;
69030;SDS011;56083;48.774;8.942;2023-10-09T12:02:04;21.20;;;6.05;;
69030;SDS011;56083;48.774;8.942;2023-10-09T12:04:30;18.98;;;5.80;;
69030;SDS011;56083;48.774;8.942;2023-10-09T12:06:56;16.98;;;5.60;;
69030;SDS011;56083;48.774;8.942;2023-10-09T12:09:35;17.27;;;5.75;;
69030;SDS011;56083;48.774;8.942;2023-10-09T12:12:06;21.75;;;6.68;;
69030;SDS011;56083;48.774;8.942;2023-10-09T12:14:34;25.38;;;5.68;;
69030;SDS011;56083;48.774;8.942;2023-10-09T12:17:03;17.77;;;5.53;;
69030;SDS011;56083;48.774;8.942;2023-10-09T12:19:32;21.63;;;6.18;;
69030;SDS011;56083;48.774;8.942;2023-10-09T12:22:08;23.95;;;5.78;;
69030;SDS011;56083;48.774;8.942;2023-10-09T12:24:36;21.23;;;5.82;;
69030;SDS011;56083;48.774;8.942;2023-10-09T12:27:02;23.77;;;6.65;;
69030;SDS011;56083;48.774;8.942;2023-10-09T12:29:34;28.35;;;6.65;;
69030;SDS011;56083;48.774;8.942;2023-10-09T12:32:00;24.98;;;6.57;;
69030;SDS011;56083;48.774;8.942;2023-10-09T12:34:27;21.30;;;6.07;;
69030;SDS011;56083;48.774;8.942;2023-10-09T12:36:54;20.05;;;6.10;;
69030;SDS011;56083;48.774;8.942;2023-10-09T12:39:22;16.75;;;5.90;;
69030;SDS011;56083;48.774;8.942;2023-10-09T12:41:48;19.63;;;5.65;;
69030;SDS011;56083;48.774;8.942;2023-10-09T12:44:18;24.17;;;6.63;;
69030;SDS011;56083;48.774;8.942;2023-10-09T12:46:44;18.42;;;6.97;;
69030;SDS011;56083;48.774;8.942;2023-10-09T12:49:22;14.60;;;5.90;;
69030;SDS011;56083;48.774;8.942;2023-10-09T12:51:54;16.05;;;5.80;;
69030;SDS011;56083;48.774;8.942;2023-10-09T12:54:20;18.10;;;6.22;;
69030;SDS011;56083;48.774;8.942;2023-10-09T12:56:51;15.27;;;5.75;;
69030;SDS011;56083;48.774;8.942;2023-10-09T12:59:18;15.43;;;6.05;;
69030;SDS011;56083;48.774;8.942;2023-10-09T13:01:45;19.88;;;6.35;;
69030;SDS011;56083;48.774;8.942;2023-10-09T13:04:14;16.95;;;6.63;;
69030;SDS011;56083;48.774;8.942;2023-10-09T13:06:44;16.55;;;6.38;;
69030;SDS011;56083;48.774;8.942;2023-10-09T13:09:14;21.05;;;7.22;;
69030;SDS011;56083;48.774;8.942;2023-10-09T13:11:41;15.13;;;6.03;;
69030;SDS011;56083;48.774;8.942;2023-10-09T13:14:07;16.42;;;6.40;;
69030;SDS011;56083;48.774;8.942;2023-10-09T13:16:42;19.73;;;6.65;;
69030;SDS011;56083;48.774;8.942;2023-10-09T13:19:12;14.50;;;6.15;;
69030;SDS011;56083;48.774;8.942;2023-10-09T13:21:37;16.58;;;6.82;;
69030;SDS011;56083;48.774;8.942;2023-10-09T13:24:07;18.58;;;6.40;;
69030;SDS011;56083;48.774;8.942;2023-10-09T13:26:38;19.75;;;6.78;;
69030;SDS011;56083;48.774;8.942;2023-10-09T13:29:06;15.98;;;6.05;;
69030;SDS011;56083;48.774;8.942;2023-10-09T13:31:34;16.92;;;6.53;;
69030;SDS011;56083;48.774;8.942;2023-10-09T13:34:03;14.75;;;6.75;;
69030;SDS011;56083;48.774;8.942;2023-10-09T13:36:31;13.45;;;6.97;;
69030;SDS011;56083;48.774;8.942;2023-10-09T13:39:05;16.33;;;7.10;;
69030;SDS011;56083;48.774;8.942;2023-10-09T13:41:52;19.70;;;7.15;;
69030;SDS011;56083;48.774;8.942;2023-10-09T13:44:31;16.73;;;6.60;;
69030;SDS011;56083;48.774;8.942;2023-10-09T13:47:03;18.55;;;7.35;;
69030;SDS011;56083;48.774;8.942;2023-10-09T13:49:34;16.23;;;7.22;;
69030;SDS011;56083;48.774;8.942;2023-10-09T13:52:02;17.35;;;7.78;;
69030;SDS011;56083;48.774;8.942;2023-10-09T13:54:29;20.20;;;7.90;;
69030;SDS011;56083;48.774;8.942;2023-10-09T13:57:04;19.20;;;7.50;;
69030;SDS011;56083;48.774;8.942;2023-10-09T13:59:34;14.70;;;7.30;;
69030;SDS011;56083;48.774;8.942;2023-10-09T14:02:00;15.38;;;6.90;;
69030;SDS011;56083;48.774;8.942;2023-10-09T14:04:33;14.98;;;7.22;;
69030;SDS011;56083;48.774;8.942;2023-10-09T14:06:59;22.15;;;7.30;;
69030;SDS011;56083;48.774;8.942;2023-10-09T14:09:27;18.33;;;7.50;;
69030;SDS011;56083;48.774;8.942;2023-10-09T14:11:56;17.65;;;7.28;;
69030;SDS011;56083;48.774;8.942;2023-10-09T14:14:41;13.60;;;7.18;;
69030;SDS011;56083;48.774;8.942;2023-10-09T14:17:14;19.30;;;7.88;;
69030;SDS011;56083;48.774;8.942;2023-10-09T14:19:53;18.42;;;7.82;;
69030;SDS011;56083;48.774;8.942;2023-10-09T14:22:22;16.35;;;7.05;;
69030;SDS011;56083;48.774;8.942;2023-10-09T14:24:51;18.38;;;7.07;;
69030;SDS011;56083;48.774;8.942;2023-10-09T14:27:22;12.75;;;7.07;;
69030;SDS011;56083;48.774;8.942;2023-10-09T14:29:52;20.80;;;7.40;;
69030;SDS011;56083;48.774;8.942;2023-10-09T14:32:24;22.40;;;7.10;;
69030;SDS011;56083;48.774;8.942;2023-10-09T14:35:07;15.82;;;7.03;;
69030;SDS011;56083;48.774;8.942;2023-10-09T14:37:38;18.42;;;7.25;;
69030;SDS011;56083;48.774;8.942;2023-10-09T14:40:05;17.42;;;7.10;;
69030;SDS011;56083;48.774;8.942;2023-10-09T14:45:03;36.90;;;8.43;;
69030;SDS011;56083;48.774;8.942;2023-10-09T14:47:33;21.52;;;7.32;;
69030;SDS011;56083;48.774;8.942;2023-10-09T14:49:58;25.63;;;7.93;;
69030;SDS011;56083;48.774;8.942;2023-10-09T14:52:26;17.75;;;7.13;;
69030;SDS011;56083;48.774;8.942;2023-10-09T14:54:52;60.55;;;9.80;;
69030;SDS011;56083;48.774;8.942;2023-10-09T14:57:18;26.40;;;8.02;;
69030;SDS011;56083;48.774;8.942;2023-10-09T14:59:43;20.23;;;7.50;;
69030;SDS011;56083;48.774;8.942;2023-10-09T15:02:09;15.65;;;7.03;;
69030;SDS011;56083;48.774;8.942;2023-10-09T15:04:37;16.80;;;7.05;;
69030;SDS011;56083;48.774;8.942;2023-10-09T15:07:03;22.98;;;7.30;;
69030;SDS011;56083;48.774;8.942;2023-10-09T15:09:32;19.88;;;7.88;;
69030;SDS011;56083;48.774;8.942;2023-10-09T15:12:01;20.73;;;6.93;;
69030;SDS011;56083;48.774;8.942;2023-10-09T15:14:27;21.70;;;7.22;;
69030;SDS011;56083;48.774;8.942;2023-10-09T15:16:53;21.63;;;7.35;;
69030;SDS011;56083;48.774;8.942;2023-10-09T15:19:18;16.85;;;7.07;;
69030;SDS011;56083;48.774;8.942;2023-10-09T15:21:45;18.85;;;7.82;;
69030;SDS011;56083;48.774;8.942;2023-10-09T15:24:11;22.92;;;7.25;;
69030;SDS011;56083;48.774;8.942;2023-10-09T15:26:41;21.63;;;7.03;;
69030;SDS011;56083;48.774;8.942;2023-10-09T15:29:07;20.52;;;7.00;;
69030;SDS011;56083;48.774;8.942;2023-10-09T15:31:35;19.80;;;7.53;;
69030;SDS011;56083;48.774;8.942;2023-10-09T15:34:01;21.67;;;7.15;;
69030;SDS011;56083;48.774;8.942;2023-10-09T15:36:27;19.60;;;7.50;;
69030;SDS011;56083;48.774;8.942;2023-10-09T15:38:56;28.17;;;7.70;;
69030;SDS011;56083;48.774;8.942;2023-10-09T15:41:28;21.60;;;7.65;;
69030;SDS011;56083;48.774;8.942;2023-10-09T15:43:57;18.98;;;7.32;;
69030;SDS011;56083;48.774;8.942;2023-10-09T15:46:23;22.35;;;7.15;;
69030;SDS011;56083;48.774;8.942;2023-10-09T15:48:50;21.17;;;7.30;;